Time;durP1;ratioP1;P1;durP2;ratioP2;P2;SDS_P1;SDS_P2;PMS_P1;PMS_P2;Temp;Humidity;BMP_temperature;BMP_pressure;BME280_temperature;BME280_humidity;BME280_pressure;Samples;Min_cycle;Max_cycle;Signal;HPM_P1;HPM_P2
2022/04/29 00:09:35;;;;;;;11.02;7.32;;;;;;;8.20;96.16;101457.22;21158955;28;20108;-70
2022/04/29 00:19:38;;;;;;;12.35;7.07;;;;;;;8.20;95.86;101441.56;21159831;28;20488;-69
2022/04/29 00:29:40;;;;;;;10.85;7.80;;;;;;;8.29;97.34;101443.38;21157549;28;20043;-66
2022/04/29 00:39:43;;;;;;;12.00;7.75;;;;;;;8.02;98.00;101430.91;21156004;28;20074;-66
2022/04/29 00:49:45;;;;;;;12.52;6.95;;;;;;;7.87;99.63;101436.84;21156350;28;20130;-67
2022/04/29 00:59:52;;;;;;;13.68;7.43;;;;;;;7.86;98.41;101428.16;21155529;28;20043;-67
2022/04/29 01:09:54;;;;;;;12.15;8.30;;;;;;;7.82;100.00;101428.09;21153629;28;20043;-66
2022/04/29 01:19:59;;;;;;;14.23;7.97;;;;;;;7.76;100.00;101439.31;21153879;28;20051;-67
2022/04/29 01:30:10;;;;;;;15.45;8.98;;;;;;;7.61;100.00;101426.06;21138664;28;20048;-66
2022/04/29 01:40:12;;;;;;;14.38;9.45;;;;;;;7.71;100.00;101425.31;21151507;28;20051;-67
2022/04/29 01:50:14;;;;;;;15.57;9.02;;;;;;;7.81;98.56;101422.00;21152558;28;20040;-67
2022/04/29 02:00:16;;;;;;;15.57;10.15;;;;;;;7.84;98.83;101421.16;21150773;28;20059;-67
2022/04/29 02:10:18;;;;;;;13.60;9.13;;;;;;;7.68;100.00;101409.66;21150632;28;20231;-66
2022/04/29 02:20:21;;;;;;;13.82;9.88;;;;;;;7.68;100.00;101399.25;21150359;28;20124;-69
2022/04/29 02:30:23;;;;;;;17.67;9.23;;;;;;;7.71;98.53;101404.47;21149774;28;20511;-69
2022/04/29 02:40:24;;;;;;;12.27;8.75;;;;;;;7.79;96.99;101409.78;21150607;28;20043;-68
2022/04/29 02:50:26;;;;;;;14.65;9.70;;;;;;;7.90;95.82;101395.13;21149400;28;20048;-68
2022/04/29 03:00:28;;;;;;;14.13;9.88;;;;;;;8.01;94.56;101377.88;21149333;28;20048;-68
2022/04/29 03:10:29;;;;;;;16.80;10.77;;;;;;;8.03;95.19;101377.91;21161477;28;20036;-68
2022/04/29 03:20:38;;;;;;;15.77;9.77;;;;;;;7.91;95.66;101382.13;21164034;28;20100;-69
2022/04/29 03:30:41;;;;;;;13.80;10.35;;;;;;;7.91;95.33;101381.25;21161955;28;20040;-69
2022/04/29 03:40:42;;;;;;;17.70;11.55;;;;;;;7.80;96.86;101383.72;21161812;28;20479;-69
2022/04/29 03:50:44;;;;;;;15.70;10.57;;;;;;;7.61;97.56;101392.19;21158171;28;20048;-68
2022/04/29 04:00:46;;;;;;;20.25;11.70;;;;;;;7.46;99.05;101388.53;21160159;28;20556;-68
2022/04/29 04:10:48;;;;;;;21.13;12.65;;;;;;;7.63;98.85;101386.16;21160188;28;20050;-67
2022/04/29 04:20:50;;;;;;;20.45;12.32;;;;;;;7.77;98.22;101398.47;21158767;28;20052;-66
2022/04/29 04:30:51;;;;;;;21.08;12.57;;;;;;;7.84;97.99;101403.75;21157165;28;20446;-66
2022/04/29 04:40:53;;;;;;;18.45;12.07;;;;;;;7.85;97.81;101413.31;21157085;28;20075;-66
2022/04/29 04:50:54;;;;;;;20.38;12.88;;;;;;;7.98;98.59;101403.91;21156779;28;20058;-66
2022/04/29 05:00:56;;;;;;;21.10;12.63;;;;;;;8.05;98.69;101420.50;21155375;28;20055;-66
2022/04/29 05:10:58;;;;;;;20.50;13.45;;;;;;;8.25;98.03;101434.66;21154895;28;20044;-67
2022/04/29 05:21:02;;;;;;;19.50;13.43;;;;;;;8.44;97.43;101439.22;21153893;28;20048;-66
2022/04/29 05:31:04;;;;;;;26.13;14.07;;;;;;;8.64;97.07;101428.09;21152099;28;20051;-66
2022/04/29 05:51:26;;;;;;;23.40;15.40;;;;;;;8.99;96.53;101447.53;21148831;28;20039;-67
2022/04/29 06:01:27;;;;;;;24.88;14.35;;;;;;;9.22;95.87;101460.75;21150598;28;20043;-68
2022/04/29 06:11:29;;;;;;;24.05;15.65;;;;;;;9.47;94.92;101445.22;21151539;28;20046;-68
2022/04/29 06:21:30;;;;;;;24.92;15.25;;;;;;;9.55;95.21;101433.06;21148232;28;20105;-67
2022/04/29 06:31:32;;;;;;;27.48;15.98;;;;;;;9.88;92.97;101432.34;21140451;28;20044;-69
2022/04/29 06:41:35;;;;;;;25.80;16.33;;;;;;;10.08;92.62;101434.16;21153191;28;20702;-67
2022/04/29 06:51:36;;;;;;;31.27;19.60;;;;;;;10.13;92.49;101433.28;21163494;28;20495;-68
2022/04/29 07:01:38;;;;;;;27.52;17.08;;;;;;;10.60;88.46;101434.28;21155377;28;20555;-71
2022/04/29 07:11:39;;;;;;;21.15;14.07;;;;;;;11.09;86.14;101421.16;21138018;28;20419;-67
2022/04/29 07:21:41;;;;;;;21.85;13.63;;;;;;;11.47;82.26;101421.94;21149414;28;20519;-66
2022/04/29 07:31:42;;;;;;;20.90;13.93;;;;;;;12.03;78.83;101413.00;21140679;28;20051;-66
2022/04/29 07:41:44;;;;;;;18.77;12.45;;;;;;;12.99;71.64;101416.66;21148492;28;20104;-66
2022/04/29 07:51:46;;;;;;;15.52;10.23;;;;;;;13.41;70.93;101411.88;21153541;28;20066;-66
2022/04/29 08:01:47;;;;;;;15.63;10.23;;;;;;;13.86;65.10;101412.22;21148345;28;20047;-67
2022/04/29 08:11:49;;;;;;;13.25;9.30;;;;;;;13.88;63.34;101407.78;21152217;28;20040;-66
2022/04/29 08:21:50;;;;;;;16.13;9.30;;;;;;;13.75;63.37;101411.47;21150512;28;20047;-66
2022/04/29 08:31:54;;;;;;;13.68;9.18;;;;;;;13.92;63.08;101403.34;21149440;28;20497;-66
2022/04/29 08:41:57;;;;;;;15.00;9.27;;;;;;;14.47;60.21;101389.38;21149963;28;20494;-67
2022/04/29 08:52:00;;;;;;;11.57;7.97;;;;;;;14.93;59.91;101381.59;21148285;28;20048;-67
2022/04/29 09:02:02;;;;;;;13.85;8.50;;;;;;;14.95;56.58;101374.53;21145686;28;20093;-69
2022/04/29 09:12:19;;;;;;;12.50;8.48;;;;;;;15.53;57.27;101368.13;21139749;28;20062;-69
2022/04/29 09:22:21;;;;;;;14.80;8.55;;;;;;;15.59;54.63;101354.78;21145209;28;20043;-69
2022/04/29 09:32:22;;;;;;;11.88;7.97;;;;;;;15.55;57.13;101355.75;21144097;28;20043;-70
2022/04/29 09:42:38;;;;;;;14.23;8.50;;;;;;;16.04;55.50;101354.69;21142869;28;20568;-69
2022/04/29 09:52:43;;;;;;;11.32;8.40;;;;;;;16.19;57.40;101342.03;21143015;28;20039;-71
2022/04/29 10:02:48;;;;;;;12.95;9.23;;;;;;;16.64;52.89;101332.09;21142180;28;20039;-70
2022/04/29 10:12:51;;;;;;;18.38;8.88;;;;;;;16.92;53.63;101313.75;21141300;28;20306;-69
2022/04/29 10:23:02;;;;;;;13.00;8.52;;;;;;;17.17;50.77;101314.81;21135156;28;20104;-67
2022/04/29 10:33:06;;;;;;;13.32;9.07;;;;;;;16.97;50.02;101311.00;21140332;28;20036;-68
2022/04/29 10:43:09;;;;;;;11.63;7.82;;;;;;;16.96;50.50;101307.47;21131201;28;20047;-68
2022/04/29 10:53:11;;;;;;;10.30;6.53;;;;;;;17.93;44.71;101294.91;21122178;28;20056;-68
2022/04/29 11:03:36;;;;;;;11.60;7.45;;;;;;;17.86;43.68;101266.88;21139701;28;20047;-68
2022/04/29 11:13:47;;;;;;;;;;;;;;;18.62;43.95;101264.28;21138967;28;20142;-68
2022/04/29 11:34:14;;;;;;;;;;;;;;;18.83;39.41;101236.16;21151953;28;20051;-68
2022/04/29 11:44:16;;;;;;;7.88;4.93;;;;;;;19.31;37.21;101211.34;21153461;28;19967;-67
2022/04/29 11:54:17;;;;;;;7.75;4.70;;;;;;;19.31;36.84;101211.34;21152730;28;20392;-66
2022/04/29 12:04:19;;;;;;;7.88;4.32;;;;;;;19.72;35.71;101193.78;21150662;28;20509;-66
2022/04/29 12:14:21;;;;;;;6.13;4.18;;;;;;;19.79;35.04;101180.25;21150341;28;20476;-66
2022/04/29 12:24:24;;;;;;;8.73;4.47;;;;;;;19.92;34.17;101165.50;21145887;28;20055;-66
2022/04/29 12:45:04;;;;;;;8.85;3.78;;;;;;;20.27;34.64;101145.38;21145052;28;20047;-66
2022/04/29 12:55:16;;;;;;;6.68;3.95;;;;;;;20.41;34.88;101142.97;21147300;28;20150;-66
2022/04/29 13:05:18;;;;;;;6.25;4.10;;;;;;;20.26;33.16;101125.00;21146401;28;20050;-66
2022/04/29 13:15:20;;;;;;;12.15;4.18;;;;;;;19.81;34.98;101125.22;21144487;28;20109;-66
2022/04/29 13:25:21;;;;;;;8.82;4.07;;;;;;;19.86;35.86;101107.28;21143398;28;20535;-66
2022/04/29 13:35:23;;;;;;;6.10;3.85;;;;;;;19.64;34.18;101089.63;21144046;28;20102;-66
2022/04/29 13:45:25;;;;;;;7.90;4.25;;;;;;;19.77;35.29;101092.59;21144005;28;20046;-66
2022/04/29 13:55:27;;;;;;;9.98;5.00;;;;;;;19.92;35.02;101081.31;21142857;28;20499;-66
2022/04/29 14:05:29;;;;;;;7.60;4.15;;;;;;;20.32;35.58;101068.06;21142104;28;20411;-66
2022/04/29 14:15:30;;;;;;;6.88;4.30;;;;;;;19.99;33.33;101060.66;21141565;28;20108;-66
2022/04/29 14:25:33;;;;;;;9.20;4.70;;;;;;;19.97;33.84;101051.88;21138882;28;20056;-65
2022/04/29 14:35:34;;;;;;;7.32;4.05;;;;;;;19.76;34.81;101051.03;21141494;28;20050;-65
2022/04/29 14:45:37;;;;;;;8.63;4.57;;;;;;;19.57;34.63;101032.31;21140560;28;20093;-66
2022/04/29 14:55:38;;;;;;;7.85;4.57;;;;;;;19.59;34.86;101033.09;21140195;28;20445;-66
2022/04/29 15:05:42;;;;;;;6.07;4.13;;;;;;;19.70;34.60;101033.56;21150172;28;20047;-65
2022/04/29 15:15:50;;;;;;;7.07;3.63;;;;;;;19.66;35.44;101009.84;21152800;28;20074;-66
2022/04/29 15:25:52;;;;;;;7.97;4.53;;;;;;;19.63;35.03;101018.81;21151166;28;20066;-65
2022/04/29 15:35:53;;;;;;;5.88;3.70;;;;;;;19.80;34.29;101001.28;21153391;28;20048;-66
2022/04/29 15:45:55;;;;;;;6.93;3.53;;;;;;;19.87;34.03;101005.38;21152022;28;20534;-66
2022/04/29 15:55:57;;;;;;;6.43;3.53;;;;;;;19.73;35.00;100996.22;21152009;28;20075;-66
2022/04/29 16:05:59;;;;;;;6.25;3.80;;;;;;;19.38;35.54;100994.19;21150787;28;20039;-66
2022/04/29 16:16:00;;;;;;;6.32;3.78;;;;;;;19.21;35.81;100982.53;21149124;28;20090;-66
2022/04/29 16:26:02;;;;;;;6.25;3.70;;;;;;;19.03;36.36;100979.78;21150094;28;20393;-66
2022/04/29 16:36:04;;;;;;;7.22;3.67;;;;;;;19.15;36.56;100966.81;21147911;28;20420;-66
2022/04/29 16:46:05;;;;;;;7.20;3.90;;;;;;;19.11;37.36;100969.66;21148091;28;20093;-66
2022/04/29 16:56:07;;;;;;;7.78;3.80;;;;;;;19.13;37.71;100957.22;21147313;28;20062;-66
2022/04/29 17:06:09;;;;;;;6.45;3.90;;;;;;;18.84;39.00;100956.63;21145819;28;20039;-66
2022/04/29 17:16:11;;;;;;;7.60;3.60;;;;;;;18.55;39.98;100959.56;21146276;28;20116;-66
2022/04/29 17:26:16;;;;;;;9.23;3.65;;;;;;;18.12;41.20;100956.81;21145576;28;20039;-67
2022/04/29 17:36:18;;;;;;;7.20;3.40;;;;;;;17.88;41.76;100955.09;21143673;28;20051;-66
2022/04/29 17:46:20;;;;;;;6.82;3.90;;;;;;;17.77;43.27;100949.28;21137248;28;20048;-66
2022/04/29 17:56:21;;;;;;;6.32;3.50;;;;;;;17.42;47.22;100964.63;21133251;28;20051;-66
2022/04/29 18:06:23;;;;;;;8.40;3.85;;;;;;;16.98;50.38;100953.78;21141041;28;20067;-66
2022/04/29 18:16:25;;;;;;;7.22;4.53;;;;;;;16.60;54.44;100958.50;21141095;28;20051;-66
2022/04/29 18:26:26;;;;;;;9.52;5.32;;;;;;;16.43;54.99;100958.16;21136841;28;20138;-66
2022/04/29 18:36:28;;;;;;;10.88;5.53;;;;;;;16.13;53.98;100963.47;21145122;28;20112;-66
2022/04/29 18:46:29;;;;;;;7.40;5.05;;;;;;;16.00;54.50;100964.75;21157232;28;20357;-67
2022/04/29 18:56:31;;;;;;;8.45;5.20;;;;;;;15.81;54.54;100971.44;21155141;28;20054;-67
2022/04/29 19:06:32;;;;;;;9.77;5.32;;;;;;;15.61;54.76;100970.19;21155499;28;20044;-67
2022/04/29 19:16:34;;;;;;;8.45;5.32;;;;;;;15.63;54.59;100986.91;21155583;28;20044;-67
2022/04/29 19:26:36;;;;;;;9.52;5.65;;;;;;;15.38;54.56;100980.53;21156609;28;20048;-67
2022/04/29 19:36:38;;;;;;;9.65;5.65;;;;;;;15.29;55.11;100994.81;21153466;28;20048;-67
2022/04/29 19:46:39;;;;;;;9.18;5.05;;;;;;;15.20;55.09;100988.91;21151481;28;20096;-67
2022/04/29 19:59:10;;;;;;;9.63;5.57;;;;;;;15.01;56.45;100978.81;21152247;28;20051;-67
2022/04/29 20:07:22;;;;;;;9.80;5.07;;;;;;;14.95;56.29;100973.72;21147040;28;20043;-67
2022/04/29 20:17:24;;;;;;;6.50;4.70;;;;;;;14.88;56.93;100977.38;21150111;28;20047;-67
2022/04/29 20:27:26;;;;;;;7.97;5.40;;;;;;;14.74;56.96;100976.84;21149280;28;20054;-68
2022/04/29 20:37:27;;;;;;;9.80;5.35;;;;;;;14.74;58.39;100990.88;21148998;28;20059;-67
2022/04/29 20:47:35;;;;;;;8.38;4.75;;;;;;;14.61;58.09;100985.06;21146376;28;20048;-68
2022/04/29 20:57:36;;;;;;;7.57;4.78;;;;;;;14.50;58.98;101000.22;21148152;28;20055;-68
2022/04/29 21:07:39;;;;;;;15.40;5.10;;;;;;;14.54;57.77;100998.41;21146007;28;20461;-68
2022/04/29 21:17:43;;;;;;;13.35;5.30;;;;;;;14.56;58.90;100996.56;21146677;28;20047;-68
2022/04/29 21:27:45;;;;;;;7.53;5.33;;;;;;;14.36;60.06;100989.94;21144580;28;20533;-67
2022/04/29 21:37:46;;;;;;;9.00;5.75;;;;;;;14.43;57.79;100977.53;21142984;28;20061;-69
2022/04/29 21:47:48;;;;;;;8.50;5.93;;;;;;;14.49;56.86;100995.88;21143593;28;20505;-68
2022/04/29 21:57:49;;;;;;;10.02;5.93;;;;;;;14.51;57.61;100987.91;21131780;28;20515;-69
2022/04/29 22:07:51;;;;;;;10.25;6.57;;;;;;;14.54;58.41;100987.84;21146697;23;20047;-72
2022/04/29 22:17:53;;;;;;;11.55;7.45;;;;;;;14.50;62.50;100992.31;21151044;28;20093;-73
2022/04/29 22:27:54;;;;;;;18.27;9.10;;;;;;;14.53;65.68;100987.00;21150770;28;20047;-71
2022/04/29 22:37:56;;;;;;;18.88;10.45;;;;;;;14.52;67.88;100982.63;21150575;28;20054;-71
2022/04/29 22:47:58;;;;;;;16.58;10.55;;;;;;;14.49;68.85;100987.09;21151203;28;20476;-72
2022/04/29 22:57:59;;;;;;;20.25;9.60;;;;;;;14.39;69.99;100999.56;21151027;28;20480;-72
2022/04/29 23:08:08;;;;;;;20.65;11.00;;;;;;;14.31;71.27;101001.50;21149740;28;20043;-72
2022/04/29 23:28:30;;;;;;;20.88;11.38;;;;;;;13.90;77.13;101002.38;21162453;28;20058;-72
2022/04/29 23:38:34;;;;;;;18.80;12.50;;;;;;;13.65;81.38;101010.72;21164194;28;20063;-71
2022/04/29 23:48:35;;;;;;;22.57;13.57;;;;;;;13.24;85.45;101016.72;21163589;28;20047;-70
2022/04/29 23:58:37;;;;;;;22.55;13.10;;;;;;;13.12;88.32;101020.38;21162023;28;20051;-71
